Latest Coastal Weather Observations for Lucinda

IDQ60701

Issued at 12:42 pm EST Thursday 5 March 2015 (issued every 10 minutes, with the page automatically refreshed every 10 minutes)

About coastal observations | Map of coastal stations | Coastal observations for QLD | Marine services | Other Formats
Station Details ID: 032141 Name: LUCINDA POINT Lat: -18.52 Lon: 146.39 Height: 10.0 m
Data from the previous 72 hours. | See also: Recent months for locations in Queensland
Date/Time
EST
Temp

°C
Wind Pressure Rain
since 9am
mm
Weather Cloud Vis
km
Sea
Height
m
Swell
Dir
 
Speed
knots
Gust
knots
hPa Trend Height
m
Period
s
Dir
05/12:30pm 29.0 S 7 10 1009.0 - 0.0 - - - - - - -
05/12:00pm 28.4 S 8 11 1009.5 - 0.0 - - - - - - -
05/11:30am 28.3 SSW 8 11 1010.0 - 0.0 - - - - - - -
05/11:00am 28.2 SSW 5 7 1010.5 - 0.0 - - - - - - -
05/10:30am 28.0 SSW 8 10 1010.7 - 0.0 - - - - - - -
05/10:00am 27.7 SSW 7 8 1010.9 - 0.0 - - - - - - -
05/09:30am 27.5 SSW 8 11 1010.9 - 0.0 - - - - - - -
05/09:00am 27.1 SW 8 9 1010.7 - 7.4 - - - - - - -
05/08:30am 26.9 SSW 7 9 1010.7 - 7.4 - - - - - - -
05/08:00am 26.4 SW 8 9 1010.3 - 7.4 - - - - - - -
05/07:30am 26.6 SW 8 9 1010.0 - 7.4 - - - - - - -
05/07:00am 26.7 WSW 7 9 1009.7 - 7.4 - - - - - - -
05/06:30am 26.5 WSW 3 6 1009.2 - 7.4 - - - - - - -
05/06:00am 26.1 WSW 8 10 1008.9 - 7.4 - - - - - - -
05/05:30am 26.4 W 6 7 1008.6 - 7.4 - - - - - - -
05/05:00am 26.4 E 4 6 1008.4 - 7.4 - - - - - - -
05/04:30am 26.9 S 4 6 1008.1 - 5.2 - - - - - - -
05/04:00am 26.8 S 6 12 1008.0 - 3.0 - - - - - - -
05/03:30am 27.8 SE 6 10 1008.1 - 3.0 - - - - - - -
05/03:00am 27.8 SE 6 10 1008.4 - 3.0 - - - - - - -
05/02:30am 27.9 SE 6 11 1008.7 - 3.0 - - - - - - -
05/02:00am 27.9 SE 7 12 1008.8 - 3.0 - - - - - - -
05/01:30am 28.0 SE 6 13 1009.0 - 3.0 - - - - - - -
05/01:00am 28.0 SE 7 12 1009.3 - 3.0 - - - - - - -
05/12:30am 28.0 SE 7 11 1009.6 - 3.0 - - - - - - -
05/12:00am 28.1 ESE 8 11 1010.1 - 3.0 - - - - - - -
 
Date/Time
EST
Temp

°C
Wind Pressure Rain
since 9am
mm
Weather Cloud Vis
km
Sea
Height
m
Swell
Dir
 
Speed
knots
Gust
knots
hPa Trend Height
m
Period
s
Dir
04/11:30pm 28.1 ESE 7 13 1010.4 - 3.0 - - - - - - -
04/11:00pm 28.1 SE 7 14 1010.7 - 3.0 - - - - - - -
04/10:30pm 28.2 SE 7 13 1010.4 - 3.0 - - - - - - -
04/10:00pm 28.2 SE 7 11 1010.7 - 3.0 - - - - - - -
04/09:30pm 28.2 ESE 9 13 1010.5 - 3.0 - - - - - - -
04/09:00pm 28.3 ESE 10 15 1010.5 - 3.0 - - - - - - -
04/08:30pm 28.2 ESE 10 16 1010.4 - 3.0 - - - - - - -
04/08:00pm 28.3 SE 7 11 1010.0 - 3.0 - - - - - - -
04/07:30pm 28.4 ESE 7 12 1009.4 - 3.0 - - - - - - -
04/07:00pm 28.3 SE 8 14 1009.2 - 3.0 - - - - - - -
04/06:30pm 28.3 ESE 9 15 1009.0 - 3.0 - - - - - - -
04/06:00pm 28.3 SE 8 13 1008.7 - 3.0 - - - - - - -
04/05:30pm 28.5 SE 9 18 1008.6 - 3.0 - - - - - - -
04/05:00pm 29.4 ESE 11 19 1008.5 - 3.0 - - - - - - -
04/04:30pm 28.9 SE 10 17 1008.5 - 3.0 - - - - - - -
04/04:00pm 28.9 SE 9 15 1008.5 - 3.0 - - - - - - -
04/03:30pm 29.2 SE 9 16 1008.5 - 3.0 - - - - - - -
04/03:00pm 28.5 ESE 14 19 1008.6 - 3.0 - - - - - - -
04/02:30pm 28.7 ESE 14 19 1009.0 - 3.0 - - - - - - -
04/02:00pm 29.0 SE 11 19 1009.2 - 3.0 - - - - - - -
04/01:30pm 29.1 SE 12 19 1009.5 - 3.0 - - - - - - -
04/01:00pm 28.6 SE 9 17 1009.9 - 3.0 - - - - - - -
04/12:30pm 26.0 ESE 4 6 1010.6 - 3.0 - - - - - - -
04/12:00pm 25.0 ESE 14 26 1010.8 - 2.4 Rain - - - - - -
04/11:47am 27.0 SE 9 25 1010.8 - 0.2 - - - - - - -
04/11:30am 28.5 S 5 8 1010.8 - 0.2 - - - - - - -
04/11:00am 28.0 SSE 5 8 1011.0 - 0.2 - - - - - - -
04/10:30am 27.2 S 9 14 1011.0 - 0.2 - - - - - - -
04/10:00am 27.3 S 13 18 1011.1 - 0.2 - - - - - - -
04/09:30am 27.4 SE 6 8 1011.1 - 0.2 - - - - - - -
04/09:00am 27.8 SE 6 10 1011.2 - 1.2 Recent precip. - - - - - -
04/08:30am 25.5 ESE 12 19 1010.6 - 1.0 - - - - - - -
04/08:00am 27.3 S 10 16 1010.5 - 0.0 - - - - - - -
04/07:30am 27.2 S 15 21 1010.1 - 0.0 - - - - - - -
04/07:00am 27.2 S 17 20 1009.9 - 0.0 - - - - - - -
04/06:30am 27.3 S 17 21 1009.5 - 0.0 - - - - - - -
04/06:00am 27.3 S 16 20 1009.3 - 0.0 - - - - - - -
04/05:30am 27.6 S 13 17 1009.1 - 0.0 - - - - - - -
04/05:00am 27.9 S 7 12 1008.7 - 0.0 - - - - - - -
04/04:30am 27.8 SSE 9 17 1008.5 - 0.0 - - - - - - -
04/04:00am 27.9 SSE 9 13 1008.5 - 0.0 - - - - - - -
04/03:30am 28.0 SE 11 19 1008.5 - 0.0 - - - - - - -
04/03:00am 28.0 S 9 16 1008.9 - 0.0 - - - - - - -
04/02:30am 28.0 S 9 14 1009.1 - 0.0 - - - - - - -
04/02:00am 28.1 S 8 12 1009.6 - 0.0 - - - - - - -
04/01:30am 28.1 SSE 10 16 1009.9 - 0.0 - - - - - - -
04/01:00am 28.2 SE 9 16 1010.3 - 0.0 - - - - - - -
04/12:30am 28.4 SE 13 19 1010.6 - 0.0 - - - - - - -
04/12:00am 28.4 SE 13 19 1010.9 - 0.0 - - - - - - -
 
Date/Time
EST
Temp

°C
Wind Pressure Rain
since 9am
mm
Weather Cloud Vis
km
Sea
Height
m
Swell
Dir
 
Speed
knots
Gust
knots
hPa Trend Height
m
Period
s
Dir
03/11:30pm 28.5 SE 11 17 1011.2 - 0.0 - - - - - - -
03/11:00pm 28.5 SE 10 15 1011.2 - 0.0 - - - - - - -
03/10:30pm 28.5 SE 9 16 1011.2 - 0.0 - - - - - - -
03/10:00pm 28.3 ESE 9 16 1011.1 - 0.0 - - - - - - -
03/09:30pm 28.4 SE 9 17 1010.9 - 0.0 - - - - - - -
03/09:00pm 28.6 SE 12 19 1010.6 - 0.0 - - - - - - -
03/08:30pm 28.4 ESE 13 19 1010.6 - 0.0 - - - - - - -
03/08:00pm 28.5 ESE 16 21 1010.1 - 0.0 - - - - - - -
03/07:30pm 28.5 ESE 14 21 1009.6 - 0.0 - - - - - - -
03/07:00pm 28.5 ESE 18 25 1009.2 - 0.0 - - - - - - -
03/06:30pm 28.5 ESE 17 20 1009.0 - 0.0 - - - - - - -
03/06:00pm 29.1 ESE 15 23 1008.7 - 0.0 - - - - - - -
03/05:42pm 29.4 ESE 15 25 1008.5 - 0.0 - - - - - - -
03/05:30pm 29.1 ESE 13 22 1008.5 - 0.0 - - - - - - -
03/05:00pm 29.5 ESE 14 22 1008.3 - 0.0 - - - - - - -
03/04:49pm 29.6 ESE 15 25 1008.1 - 0.0 - - - - - - -
03/04:30pm 29.5 ESE 17 24 1008.1 - 0.0 - - - - - - -
03/04:00pm 29.5 ESE 15 21 1008.3 - 0.0 - - - - - - -
03/03:30pm 29.4 SE 11 17 1008.4 - 0.0 - - - - - - -
03/03:00pm 29.2 SE 12 20 1008.6 - 0.0 - - - - - - -
03/02:30pm 29.5 SE 12 19 1008.8 - 0.0 - - - - - - -
03/02:00pm 29.3 SE 13 23 1009.3 - 0.0 - - - - - - -
03/01:30pm 28.4 ESE 13 22 1009.6 - 0.0 - - - - - - -
03/01:00pm 29.5 SE 10 17 1010.0 - 0.0 - - - - - - -
03/12:30pm 28.0 S 9 14 1010.4 - 0.0 - - - - - - -
03/12:00pm 28.8 SE 8 14 1010.6 - 0.0 - - - - - - -
03/11:30am 27.9 S 13 16 1010.9 - 0.0 - - - - - - -
03/11:00am 29.4 SE 7 11 1011.2 - 0.0 - - - - - - -
03/10:30am 29.8 ESE 10 16 1011.3 - 0.0 - - - - - - -
03/10:00am 29.7 ESE 11 15 1011.4 - 0.0 - - - - - - -
03/09:30am 29.7 ESE 12 16 1011.3 - 0.0 - - - - - - -
03/09:00am 29.4 ESE 12 16 1011.2 - 0.0 - - - - - - -
03/08:30am 28.8 SE 13 18 1011.1 - 0.0 - - - - - - -
03/08:00am 28.8 ESE 13 19 1010.8 - 0.0 - - - - - - -
03/07:30am 29.0 ESE 13 19 1010.4 - 0.0 - - - - - - -
03/07:00am 28.5 ESE 11 17 1010.1 - 0.0 - - - - - - -
03/06:30am 28.1 ESE 10 15 1009.5 - 0.0 - - - - - - -
03/06:00am 28.1 ESE 9 14 1009.3 - 0.0 - - - - - - -
03/05:30am 28.0 ESE 9 13 1008.9 - 0.0 - - - - - - -
03/05:00am 27.9 ESE 8 12 1008.8 - 0.0 - - - - - - -
03/04:30am 27.9 ESE 9 13 1008.7 - 0.0 - - - - - - -
03/04:00am 28.1 ESE 10 14 1008.7 - 0.0 - - - - - - -
03/03:30am 27.9 SE 9 13 1008.6 - 0.0 - - - - - - -
03/03:00am 28.0 ESE 9 15 1008.5 - 0.0 - - - - - - -
03/02:30am 28.0 ESE 11 16 1008.8 - 0.0 - - - - - - -
03/02:00am 28.1 ESE 11 16 1009.3 - 0.0 - - - - - - -
03/01:30am 28.1 ESE 10 17 1009.6 - 0.0 - - - - - - -
03/01:00am 28.2 ESE 11 16 1009.9 - 0.0 - - - - - - -
03/12:30am 28.2 ESE 10 15 1010.0 - 0.0 - - - - - - -
03/12:00am 28.3 ESE 11 15 1009.8 - 0.0 - - - - - - -
 
Date/Time
EST
Temp

°C
Wind Pressure Rain
since 9am
mm
Weather Cloud Vis
km
Sea
Height
m
Swell
Dir
 
Speed
knots
Gust
knots
hPa Trend Height
m
Period
s
Dir
02/11:30pm 28.3 ESE 9 13 1009.9 - 0.0 - - - - - - -
02/11:00pm 28.4 ESE 8 12 1009.8 - 0.0 - - - - - - -
02/10:30pm 28.5 ESE 8 13 1009.8 - 0.0 - - - - - - -
02/10:00pm 28.6 ESE 7 11 1009.8 - 0.0 - - - - - - -
02/09:30pm 28.6 ESE 6 9 1009.7 - 0.0 - - - - - - -
02/09:00pm 28.6 ESE 7 10 1009.5 - 0.0 - - - - - - -
02/08:30pm 28.6 E 7 9 1009.0 - 0.0 - - - - - - -
02/08:00pm 28.7 ENE 9 11 1008.1 - 0.0 - - - - - - -
02/07:30pm 28.6 NE 10 13 1007.9 - 0.0 - - - - - - -
02/07:00pm 28.7 NE 12 14 1007.5 - 0.0 - - - - - - -
02/06:30pm 28.7 NNE 12 15 1007.4 - 0.0 - - - - - - -
02/06:00pm 28.9 NNE 12 16 1007.0 - 0.0 - - - - - - -
02/05:30pm 29.5 NNE 13 16 1006.7 - 0.0 - - - - - - -
02/05:00pm 29.0 NNE 14 16 1006.4 - 0.0 - - - - - - -
02/04:30pm 28.9 NNE 12 14 1006.4 - 0.0 - - - - - - -
02/04:00pm 29.1 NE 12 14 1006.3 - 0.0 - - - - - - -
02/03:30pm 28.8 NE 13 15 1006.5 - 0.0 - - - - - - -
02/03:00pm 28.8 NE 13 15 1006.7 - 0.0 - - - - - - -
02/02:30pm 29.0 NNE 11 14 1006.8 - 0.0 - - - - - - -
02/02:00pm 28.9 NE 12 15 1007.2 - 0.0 - - - - - - -
02/01:30pm 28.7 NE 12 13 1007.3 - 0.0 - - - - - - -
02/01:00pm 28.7 NE 11 13 1007.5 - 0.0 - - - - - - -

Other Formats:

Comma delimited format used in spreadsheet applications
http://www.bom.gov.au/fwo/IDQ60701/IDQ60701.94295.axf

JavaScript Object Notation format (JSON) in row-major order
http://www.bom.gov.au/fwo/IDQ60701/IDQ60701.94295.json